Terminal Aerodrome Forecast
Issued by NWS

Home | Current Version | Previous Version | Text Only | Print | Product List | Glossary On
Versions: 1 2 3 4 5 6 7 8 9 10 11 12 13 14 15 16 17 18 19 20
000
FTUS43 KMQT 182300
TAFIWD
TAF
KIWD 182338Z 1900/1924 16006KT P6SM SCT020
     FM190700 19011G18KT P6SM BKN010
     FM191400 19017G26KT P6SM BKN120
     FM192200 20015G23KT P6SM VCSH BKN050
      AMD LTD TO CLD VIS AND WIND=

USA.gov is the U.S. government's official web portal to all federal, state and local government web resources and services.